Kalamazoo, MI (49007)

12:03 PM EST on January 17, 2017 (GMT -0500)
KMIKALAM34 | | Change Station
Active Advisory: Flood Advisory Active Notice: Public Information Statement

Elev 771 ft 42.31 °N, 85.58 °W | Updated 10 seconds ago

Overcast
Overcast
40.7 °F
Feels Like 37 °F
N
5.0
Wind Variable Wind from WSW
Gusts 7.0 mph

Today
High -- | Low -- °F
--% Chance of Precip.
Yesterday
High -- | Low -- °F
Precip. -- in
Pressure 29.83 in
Visibility 1.0 miles
Clouds Overcast 300 ft
Windchill 37 °F
Dew Point 36 °F
Humidity 82%
Rainfall 0.33 in
Snow Depth Not available.
8:07 AM 5:37 PM
Waning Gibbous, 71% visible
METAR KAZO 171653Z 24009KT 1SM R35/P6000FT BR OVC003 05/03 A2980 RMK AO2 SLP099 T00500033
Pressure 29.83 in
Visibility 1.0 miles
Clouds Overcast 300 ft
Windchill 37 °F
Dew Point 36 °F
Humidity 82%
Rainfall 0.33 in
Snow Depth Not available.
8:07 AM 5:37 PM
Waning Gibbous, 71% visible
METAR KAZO 171653Z 24009KT 1SM R35/P6000FT BR OVC003 05/03 A2980 RMK AO2 SLP099 T00500033

Get Your Daily Forecast Email!

Thanks for signing up!

Be on the lookout for a verification email in your inbox.

You'll start receiving the daily forecast at 8 AM.

×

10-Day Weather Forecast

Almanac

Astronomy

Jan. 17, 2017 Rise Set
Actual Time
Civil Twilight
Nautical Twilight
Astronomical Twilight
Moon
Length of Visible Light
Length of Day
Tomorrow will be .
, % of the Moon is Illuminated

Today's Extremes

State Highs State Lows

Community

WunderPhotos

Upload Photos

1,962,540 photos uploaded!

WunderBlog® & News

Nearby

Air Quality

  Air Quality AQ Index Pollutant
Not available.

Snow Depth

Station Depth Elevation

Earthquake Activity

City Distance Mag. Time & Date
Minimum magnitude displayed is 2.5.

Coastal Water Temperatures

Place Temperature

Stations

Nearby Weather Stations

Station Location Temp. Windchill Dew Point Humidity Wind Precip. Elev Updated Type
                   

Watches & Warnings

Flood Advisory
Issued: 9:41 PM EST Jan. 16, 2017 – National Weather Service

The National Weather Service in Grand Rapids has issued a
* Flood Advisory for
the Portage River near Vicksburg.
* From Tuesday evening to Wednesday morning.
* There is not current observed data.
* Bankfull stage is 5.0 feet.
* Flood stage is 5.0 feet.
* Impact, at 5.0 feet... expect overflows into wooded areas and
farmland adjacent to the river


Lat... Lon 4208 8547 4211 8544 4216 8544 4215 8548
      4211 8553 4208 8552